createdAt,value
2023-04-24T00:01:26.891Z,37.30
2023-04-24T00:03:54.182Z,37.63
2023-04-24T00:06:21.511Z,37.70
2023-04-24T00:08:48.542Z,37.58
2023-04-24T00:11:15.264Z,37.71
2023-04-24T00:13:42.369Z,37.62
2023-04-24T00:16:09.152Z,37.63
2023-04-24T00:18:36.268Z,37.55
2023-04-24T00:21:03.900Z,37.43
2023-04-24T00:23:31.349Z,37.81
2023-04-24T00:25:58.076Z,37.49
2023-04-24T00:28:25.103Z,37.61
2023-04-24T00:30:51.883Z,37.52
2023-04-24T00:33:18.903Z,37.93
2023-04-24T00:35:45.711Z,37.41
2023-04-24T00:38:12.722Z,37.42
2023-04-24T00:40:39.603Z,37.56
2023-04-24T00:43:08.323Z,37.64
2023-04-24T00:45:36.137Z,37.69
2023-04-24T00:48:03.325Z,37.88
2023-04-24T00:50:30.266Z,37.56
2023-04-24T00:52:57.483Z,37.49
2023-04-24T00:55:24.314Z,37.42
2023-04-24T00:57:51.586Z,37.80
2023-04-24T01:00:18.421Z,37.52
2023-04-24T01:02:46.292Z,38.05
2023-04-24T01:05:14.285Z,37.47
2023-04-24T01:07:44.905Z,37.57
2023-04-24T01:10:12.537Z,37.78
2023-04-24T01:12:39.843Z,37.59
2023-04-24T01:15:07.658Z,38.03
2023-04-24T01:17:34.824Z,37.63
2023-04-24T01:20:01.783Z,37.83
2023-04-24T01:22:28.957Z,37.79
2023-04-24T01:24:55.735Z,37.70
2023-04-24T01:27:22.827Z,37.82
2023-04-24T01:29:50.394Z,37.73
2023-04-24T01:32:17.561Z,37.53
2023-04-24T01:34:44.361Z,37.65
2023-04-24T01:37:11.673Z,37.57
2023-04-24T01:39:38.642Z,37.66
2023-04-24T01:42:06.387Z,37.67
2023-04-24T01:44:33.152Z,37.71
2023-04-24T01:47:01.695Z,37.47
2023-04-24T01:49:28.554Z,37.84
2023-04-24T01:51:55.760Z,37.77
2023-04-24T01:54:22.503Z,37.64
2023-04-24T01:56:49.599Z,38.01
2023-04-24T01:59:16.540Z,37.62
2023-04-24T02:01:43.570Z,37.74
2023-04-24T02:04:10.474Z,37.93
2023-04-24T02:06:37.600Z,37.41
2023-04-24T02:09:04.494Z,37.91
2023-04-24T02:11:31.655Z,37.83
2023-04-24T02:13:58.703Z,37.98
2023-04-24T02:16:26.018Z,37.91
2023-04-24T02:18:52.926Z,37.67
2023-04-24T02:21:20.058Z,37.71
2023-04-24T02:23:46.805Z,37.93
2023-04-24T02:26:14.020Z,38.17
2023-04-24T02:28:40.889Z,38.01
2023-04-24T02:31:08.078Z,37.44
2023-04-24T02:33:34.884Z,37.65
2023-04-24T02:36:02.938Z,37.96
2023-04-24T02:38:30.361Z,37.89
2023-04-24T02:40:57.467Z,37.51
2023-04-24T02:43:24.306Z,37.77
2023-04-24T02:45:51.439Z,37.79
2023-04-24T02:48:18.334Z,37.69
2023-04-24T02:50:45.903Z,37.76
2023-04-24T02:53:12.697Z,38.10
2023-04-24T02:55:39.730Z,37.87
2023-04-24T02:58:07.056Z,37.93
2023-04-24T03:00:34.289Z,37.91
2023-04-24T03:03:01.295Z,38.08
2023-04-24T03:05:28.661Z,37.91
2023-04-24T03:07:55.508Z,37.70
2023-04-24T03:10:23.785Z,37.57
2023-04-24T03:12:50.732Z,38.04
2023-04-24T03:15:17.822Z,38.06
2023-04-24T03:17:44.644Z,38.15
2023-04-24T03:20:11.807Z,38.17
2023-04-24T03:22:38.561Z,37.78
2023-04-24T03:25:06.247Z,38.04
2023-04-24T03:27:33.074Z,37.87
2023-04-24T03:30:00.198Z,38.02
2023-04-24T03:32:26.940Z,37.71
2023-04-24T03:34:54.347Z,37.97
2023-04-24T03:37:21.130Z,37.82
2023-04-24T03:39:48.212Z,37.87
2023-04-24T03:42:15.003Z,37.72
2023-04-24T03:44:42.052Z,37.76
2023-04-24T03:47:08.830Z,38.26
2023-04-24T03:49:35.909Z,38.03
2023-04-24T03:52:02.682Z,37.69
2023-04-24T03:54:29.755Z,38.06
2023-04-24T03:56:56.551Z,37.72
2023-04-24T03:59:23.602Z,37.61
2023-04-24T04:01:50.500Z,37.96
2023-04-24T04:04:17.965Z,38.04
2023-04-24T04:06:45.243Z,38.04
2023-04-24T04:09:12.285Z,37.71
2023-04-24T04:11:39.149Z,37.92
2023-04-24T04:14:06.389Z,37.59
2023-04-24T04:16:33.321Z,37.60
2023-04-24T04:19:00.426Z,37.77
2023-04-24T04:21:28.136Z,37.73
2023-04-24T04:23:55.269Z,37.75
2023-04-24T04:26:22.244Z,37.64
2023-04-24T04:28:50.051Z,37.79
2023-04-24T04:31:16.918Z,37.65
2023-04-24T04:33:44.045Z,37.74
2023-04-24T04:36:10.958Z,37.66
2023-04-24T04:38:38.162Z,37.75
2023-04-24T04:41:05.417Z,37.80
2023-04-24T04:43:33.649Z,37.92
2023-04-24T04:46:01.788Z,37.97
2023-04-24T04:48:29.792Z,38.00
2023-04-24T04:50:56.631Z,37.83
2023-04-24T04:53:23.721Z,38.18
2023-04-24T04:55:50.555Z,37.91
2023-04-24T04:58:17.710Z,38.09
2023-04-24T05:00:45.188Z,37.84
2023-04-24T05:03:20.781Z,37.84
2023-04-24T05:05:48.334Z,37.87
2023-04-24T05:10:45.275Z,37.72
2023-04-24T05:13:14.054Z,38.14
2023-04-24T05:15:41.042Z,38.35
2023-04-24T05:18:08.268Z,38.13
2023-04-24T05:20:35.065Z,38.36
2023-04-24T05:23:02.131Z,38.36
2023-04-24T05:25:28.886Z,38.18
2023-04-24T05:27:55.939Z,38.16
2023-04-24T05:30:22.665Z,38.19
2023-04-24T05:32:49.708Z,38.39
2023-04-24T05:35:16.532Z,38.52
2023-04-24T05:37:43.587Z,38.24
2023-04-24T05:40:10.667Z,38.50
2023-04-24T05:42:37.734Z,38.27
2023-04-24T05:45:05.436Z,38.39
2023-04-24T05:47:32.525Z,38.25
2023-04-24T05:49:59.278Z,38.42
2023-04-24T05:52:26.755Z,38.33
2023-04-24T05:54:53.477Z,38.11
2023-04-24T05:57:20.731Z,38.59
2023-04-24T05:59:47.482Z,38.36
2023-04-24T06:02:14.605Z,38.16
2023-04-24T06:04:41.537Z,38.11
2023-04-24T06:07:08.786Z,38.04
2023-04-24T06:09:35.604Z,37.65
2023-04-24T06:12:03.527Z,38.01
2023-04-24T06:14:30.459Z,37.76
2023-04-24T06:16:57.749Z,37.70
2023-04-24T06:19:24.745Z,37.28
2023-04-24T06:21:51.956Z,37.49
2023-04-24T06:24:18.714Z,37.09
2023-04-24T06:26:46.114Z,36.83
2023-04-24T06:29:12.929Z,36.71
2023-04-24T06:31:40.090Z,36.96
2023-04-24T06:34:06.910Z,37.11
2023-04-24T06:36:35.636Z,36.97
2023-04-24T06:39:02.579Z,37.27
2023-04-24T06:41:30.153Z,37.20
2023-04-24T06:43:56.951Z,37.06
2023-04-24T06:46:27.068Z,37.38
2023-04-24T06:48:56.718Z,37.00
2023-04-24T06:51:27.674Z,37.07
2023-04-24T06:53:54.800Z,37.12
2023-04-24T06:56:22.012Z,37.08
2023-04-24T06:58:49.018Z,37.11
2023-04-24T07:01:16.120Z,37.01
2023-04-24T07:03:43.206Z,36.59
2023-04-24T07:06:11.206Z,36.85
2023-04-24T07:08:38.360Z,36.72
2023-04-24T07:11:05.606Z,36.65
2023-04-24T07:13:32.446Z,36.69
2023-04-24T07:15:59.614Z,36.44
2023-04-24T07:18:26.421Z,36.57
2023-04-24T07:20:53.531Z,36.45
2023-04-24T07:23:21.633Z,36.55
2023-04-24T07:25:48.769Z,36.13
2023-04-24T07:28:15.699Z,36.33
2023-04-24T07:30:42.805Z,36.47
2023-04-24T07:33:09.633Z,36.35
2023-04-24T07:35:36.766Z,36.15
2023-04-24T07:38:03.548Z,36.40
2023-04-24T07:40:30.984Z,36.40
2023-04-24T07:42:57.878Z,35.92
2023-04-24T07:45:27.032Z,36.16
2023-04-24T07:47:53.850Z,35.77
2023-04-24T07:50:21.223Z,35.90
2023-04-24T07:52:48.638Z,35.46
2023-04-24T07:55:15.853Z,35.17
2023-04-24T07:57:42.804Z,35.12
2023-04-24T08:00:10.471Z,35.33
2023-04-24T08:02:37.580Z,35.27
2023-04-24T08:05:05.209Z,35.73
2023-04-24T08:07:32.484Z,35.66
2023-04-24T08:10:00.424Z,35.36
2023-04-24T08:12:27.322Z,35.03
2023-04-24T08:14:54.425Z,35.02
2023-04-24T08:17:21.270Z,35.02
2023-04-24T08:19:52.218Z,35.10
2023-04-24T08:22:19.089Z,34.91
2023-04-24T08:24:46.297Z,35.18
2023-04-24T08:27:13.150Z,34.79
2023-04-24T08:29:40.449Z,34.69
2023-04-24T08:32:07.865Z,34.92
2023-04-24T08:34:35.714Z,34.56
2023-04-24T08:37:02.494Z,34.50
2023-04-24T08:39:29.535Z,33.98
2023-04-24T08:41:56.446Z,34.38
2023-04-24T08:44:23.633Z,34.24
2023-04-24T08:46:50.650Z,34.45
2023-04-24T08:49:18.380Z,34.54
2023-04-24T08:51:45.846Z,34.47
2023-04-24T08:54:13.664Z,34.07
2023-04-24T08:56:40.746Z,33.94
2023-04-24T08:59:07.995Z,33.98
2023-04-24T09:01:35.040Z,34.02
2023-04-24T09:04:05.572Z,34.18
2023-04-24T09:06:33.208Z,33.77
2023-04-24T09:09:04.409Z,34.02
2023-04-24T09:11:31.642Z,33.60
2023-04-24T09:13:58.830Z,33.92
2023-04-24T09:16:26.577Z,33.65
2023-04-24T09:18:53.754Z,33.84
2023-04-24T09:21:22.519Z,33.90
2023-04-24T09:24:00.354Z,33.62
2023-04-24T09:26:27.950Z,33.23
2023-04-24T09:28:55.415Z,33.48
2023-04-24T09:31:23.742Z,33.18
2023-04-24T09:34:01.817Z,32.96
2023-04-24T09:36:29.951Z,32.24
2023-04-24T09:38:59.310Z,31.95
2023-04-24T09:41:26.058Z,32.33
2023-04-24T09:43:54.951Z,32.11
2023-04-24T09:46:23.346Z,31.87
2023-04-24T09:48:50.483Z,32.03
2023-04-24T09:51:17.739Z,31.69
2023-04-24T09:53:48.234Z,31.66
2023-04-24T09:56:15.100Z,31.54
2023-04-24T09:58:42.247Z,31.81
2023-04-24T10:01:09.242Z,31.40
2023-04-24T10:03:36.610Z,31.20
2023-04-24T10:06:09.507Z,32.00
2023-04-24T10:08:37.201Z,31.63
2023-04-24T10:11:04.100Z,32.06
2023-04-24T10:13:31.255Z,31.64
2023-04-24T10:15:58.083Z,31.72
2023-04-24T10:18:25.351Z,32.29
2023-04-24T10:20:52.224Z,32.00
2023-04-24T10:23:20.411Z,32.06
2023-04-24T10:25:47.239Z,31.97
2023-04-24T10:28:14.332Z,31.78
2023-04-24T10:30:41.108Z,31.66
2023-04-24T10:33:09.341Z,31.60
2023-04-24T10:35:38.961Z,31.73
2023-04-24T10:38:13.182Z,31.92
2023-04-24T10:40:40.412Z,31.68
2023-04-24T10:43:09.834Z,31.67
2023-04-24T10:45:36.713Z,31.62
2023-04-24T10:48:06.222Z,31.20
2023-04-24T10:50:53.691Z,31.24
2023-04-24T10:53:24.140Z,31.56
2023-04-24T10:55:52.353Z,31.50
2023-04-24T10:58:23.229Z,31.46
2023-04-24T11:01:00.571Z,31.36
2023-04-24T11:03:29.284Z,31.42
2023-04-24T11:05:59.304Z,31.85
2023-04-24T11:08:40.042Z,31.37
2023-04-24T11:11:11.302Z,31.32
2023-04-24T11:13:56.980Z,31.34
2023-04-24T11:16:34.841Z,30.95
2023-04-24T11:19:08.995Z,31.50
2023-04-24T11:21:58.471Z,31.24
2023-04-24T11:24:40.803Z,31.21
2023-04-24T11:27:12.785Z,31.44
2023-04-24T11:29:40.901Z,31.52
2023-04-24T11:32:26.605Z,31.19
2023-04-24T11:35:28.822Z,31.58
2023-04-24T11:40:29.082Z,31.63
2023-04-24T11:43:00.440Z,31.31
2023-04-24T11:45:29.347Z,31.27
2023-04-24T11:47:56.170Z,31.31
2023-04-24T11:50:24.380Z,31.26
2023-04-24T11:52:51.409Z,31.38
2023-04-24T11:55:18.734Z,31.57
2023-04-24T11:57:58.724Z,31.37
2023-04-24T12:00:32.869Z,31.31
2023-04-24T12:03:08.736Z,31.68
2023-04-24T12:05:36.255Z,31.79
2023-04-24T12:08:03.215Z,31.82
2023-04-24T12:10:31.154Z,31.43
2023-04-24T12:12:58.442Z,31.53
2023-04-24T12:15:25.781Z,31.21
2023-04-24T12:17:53.116Z,31.73
2023-04-24T12:20:33.756Z,32.06
2023-04-24T12:23:01.492Z,31.93
2023-04-24T12:25:29.930Z,31.65
2023-04-24T12:28:13.394Z,32.08
2023-04-24T12:30:42.395Z,31.88
2023-04-24T12:33:09.265Z,32.28
2023-04-24T12:35:36.974Z,32.17
2023-04-24T12:38:09.046Z,32.22
2023-04-24T12:40:36.292Z,32.39
2023-04-24T12:43:03.408Z,32.60
2023-04-24T12:45:30.506Z,32.71
2023-04-24T12:47:57.314Z,32.76
2023-04-24T12:50:24.511Z,32.46
2023-04-24T12:52:51.291Z,33.02
2023-04-24T12:55:18.389Z,32.79
2023-04-24T12:57:45.138Z,32.84
2023-04-24T13:00:12.656Z,33.04
2023-04-24T13:02:39.611Z,33.33
2023-04-24T13:05:07.176Z,33.27
2023-04-24T13:07:33.992Z,33.59
2023-04-24T13:10:01.162Z,33.17
2023-04-24T13:12:28.026Z,33.90
2023-04-24T13:14:55.313Z,33.92
2023-04-24T13:17:22.754Z,33.98
2023-04-24T13:19:51.146Z,33.56
2023-04-24T13:22:19.765Z,33.97
2023-04-24T13:24:49.530Z,34.04
2023-04-24T13:27:16.891Z,34.08
2023-04-24T13:29:44.018Z,34.37
2023-04-24T13:32:10.915Z,34.35
2023-04-24T13:34:38.266Z,34.23
2023-04-24T13:37:05.337Z,33.99
2023-04-24T13:39:32.685Z,34.45
2023-04-24T13:41:59.512Z,34.27
2023-04-24T13:44:26.599Z,34.13
2023-04-24T13:46:55.160Z,34.45
2023-04-24T13:49:22.433Z,35.08
2023-04-24T13:51:49.220Z,34.96
2023-04-24T13:54:16.265Z,34.94
2023-04-24T13:56:43.049Z,35.26
2023-04-24T13:59:10.219Z,34.81
2023-04-24T14:01:37.154Z,34.66
2023-04-24T14:04:04.562Z,35.14
2023-04-24T14:06:32.270Z,34.67
2023-04-24T14:08:59.391Z,35.36
2023-04-24T14:11:26.226Z,35.00
2023-04-24T14:13:53.376Z,35.33
2023-04-24T14:16:20.206Z,34.94
2023-04-24T14:18:46.993Z,35.33
2023-04-24T14:21:14.099Z,35.14
2023-04-24T14:23:40.895Z,35.16
2023-04-24T14:26:08.629Z,35.30
2023-04-24T14:28:35.473Z,35.37
2023-04-24T14:31:02.549Z,36.00
2023-04-24T14:33:29.607Z,35.65
2023-04-24T14:35:56.754Z,36.17
2023-04-24T14:38:23.656Z,35.85
2023-04-24T14:43:21.092Z,36.11
2023-04-24T14:45:48.161Z,35.89
2023-04-24T14:48:15.518Z,35.95
2023-04-24T14:50:42.618Z,36.27
2023-04-24T14:53:09.407Z,36.17
2023-04-24T14:55:37.304Z,35.98
2023-04-24T14:58:04.919Z,36.33
2023-04-24T15:00:32.362Z,36.12
2023-04-24T15:02:59.472Z,36.00
2023-04-24T15:05:26.786Z,36.41
2023-04-24T15:07:53.825Z,35.90
2023-04-24T15:10:23.875Z,36.02
2023-04-24T15:12:50.874Z,36.36
2023-04-24T15:15:18.020Z,36.65
2023-04-24T15:17:44.786Z,36.80
2023-04-24T15:20:12.219Z,36.70
2023-04-24T15:22:39.097Z,36.65
2023-04-24T15:25:06.894Z,36.36
2023-04-24T15:27:41.864Z,36.45
2023-04-24T15:30:09.458Z,36.25
2023-04-24T15:32:36.313Z,36.73
2023-04-24T15:35:08.451Z,36.83
2023-04-24T15:37:37.143Z,36.65
2023-04-24T15:40:06.632Z,36.43
2023-04-24T15:42:33.717Z,36.46
2023-04-24T15:45:00.908Z,36.43
2023-04-24T15:47:27.805Z,36.20
2023-04-24T15:49:54.967Z,36.41
2023-04-24T15:52:22.021Z,36.34
2023-04-24T15:54:49.232Z,36.77
2023-04-24T15:57:16.103Z,36.69
2023-04-24T15:59:43.373Z,36.92
2023-04-24T16:02:10.499Z,37.01
2023-04-24T16:04:37.836Z,36.42
2023-04-24T16:07:04.847Z,36.79
2023-04-24T16:09:32.002Z,36.76
2023-04-24T16:11:58.775Z,36.79
2023-04-24T16:14:26.201Z,36.21
2023-04-24T16:16:53.072Z,36.35
2023-04-24T16:19:20.379Z,36.76
2023-04-24T16:21:47.182Z,36.69
2023-04-24T16:24:14.247Z,36.75
2023-04-24T16:26:41.190Z,36.49
2023-04-24T16:29:08.258Z,36.80
2023-04-24T16:31:35.045Z,36.52
2023-04-24T16:34:02.184Z,36.94
2023-04-24T16:36:29.056Z,36.99
2023-04-24T16:38:56.269Z,36.52
2023-04-24T16:41:23.043Z,36.87
2023-04-24T16:43:50.820Z,36.88
2023-04-24T16:46:17.675Z,36.78
2023-04-24T16:48:44.786Z,36.69
2023-04-24T16:51:11.552Z,36.63
2023-04-24T16:53:38.678Z,36.74
2023-04-24T16:56:05.697Z,36.52
2023-04-24T16:58:32.796Z,36.99
2023-04-24T17:00:59.678Z,36.70
2023-04-24T17:03:26.959Z,36.97
2023-04-24T17:05:53.854Z,37.28
2023-04-24T17:08:22.622Z,36.84
2023-04-24T17:10:49.511Z,36.97
2023-04-24T17:13:16.634Z,37.20
2023-04-24T17:15:43.466Z,37.46
2023-04-24T17:18:11.183Z,36.85
2023-04-24T17:20:37.946Z,37.32
2023-04-24T17:23:05.016Z,37.16
2023-04-24T17:25:31.800Z,36.88
2023-04-24T17:27:58.890Z,37.39
2023-04-24T17:30:25.723Z,37.13
2023-04-24T17:32:52.868Z,37.25
2023-04-24T17:35:22.136Z,37.13
2023-04-24T17:37:49.808Z,37.36
2023-04-24T17:40:17.623Z,37.25
2023-04-24T17:42:44.774Z,37.59
2023-04-24T17:45:12.152Z,37.50
2023-04-24T17:47:39.268Z,37.72
2023-04-24T17:50:06.549Z,37.76
2023-04-24T17:52:34.386Z,37.43
2023-04-24T17:55:01.461Z,37.67
2023-04-24T17:57:28.982Z,37.88
2023-04-24T17:59:55.778Z,37.81
2023-04-24T18:02:22.932Z,38.16
2023-04-24T18:04:50.730Z,38.06
2023-04-24T18:07:18.821Z,38.19
2023-04-24T18:09:45.680Z,37.73
2023-04-24T18:12:12.850Z,38.23
2023-04-24T18:14:39.654Z,38.39
2023-04-24T18:17:07.689Z,37.67
2023-04-24T18:19:34.501Z,38.35
2023-04-24T18:22:01.617Z,37.95
2023-04-24T18:24:28.398Z,38.44
2023-04-24T18:26:55.512Z,38.62
2023-04-24T18:29:22.323Z,38.03
2023-04-24T18:31:49.965Z,38.53
2023-04-24T18:34:16.869Z,38.71
2023-04-24T18:36:43.986Z,38.50
2023-04-24T18:39:10.872Z,38.40
2023-04-24T18:41:37.953Z,38.23
2023-04-24T18:44:04.722Z,38.38
2023-04-24T18:46:34.917Z,38.38
2023-04-24T18:49:01.864Z,38.35
2023-04-24T18:51:28.916Z,38.47
2023-04-24T18:53:55.855Z,38.50
2023-04-24T18:56:23.083Z,38.58
2023-04-24T18:58:50.331Z,38.61
2023-04-24T19:01:17.843Z,39.14
2023-04-24T19:03:44.838Z,38.92
2023-04-24T19:06:12.039Z,38.58
2023-04-24T19:08:38.842Z,38.80
2023-04-24T19:11:06.057Z,38.80
2023-04-24T19:13:32.879Z,38.52
2023-04-24T19:16:00.027Z,39.23
2023-04-24T19:18:27.188Z,38.84
2023-04-24T19:20:54.282Z,39.07
2023-04-24T19:23:21.317Z,39.09
2023-04-24T19:25:48.589Z,39.12
2023-04-24T19:28:15.382Z,39.15
2023-04-24T19:30:42.651Z,38.99
2023-04-24T19:33:09.510Z,39.56
2023-04-24T19:35:36.679Z,39.28
2023-04-24T19:38:03.476Z,39.36
2023-04-24T19:40:30.739Z,39.56
2023-04-24T19:42:57.631Z,39.71
2023-04-24T19:45:24.723Z,39.58
2023-04-24T19:47:51.554Z,39.57
2023-04-24T19:50:18.652Z,39.14
2023-04-24T19:52:45.462Z,39.29
2023-04-24T19:55:12.724Z,39.47
2023-04-24T19:57:39.531Z,39.53
2023-04-24T20:00:08.144Z,39.45
2023-04-24T20:02:35.352Z,39.48
2023-04-24T20:05:02.645Z,40.13
2023-04-24T20:07:29.554Z,39.90
2023-04-24T20:09:56.670Z,39.91
2023-04-24T20:12:23.487Z,39.79
2023-04-24T20:14:50.597Z,39.86
2023-04-24T20:17:17.462Z,39.99
2023-04-24T20:19:44.760Z,40.13
2023-04-24T20:22:13.198Z,39.85
2023-04-24T20:24:40.608Z,40.19
2023-04-24T20:27:07.385Z,40.03
2023-04-24T20:29:35.005Z,40.17
2023-04-24T20:32:01.808Z,40.33
2023-04-24T20:34:28.871Z,39.89
2023-04-24T20:36:57.262Z,40.28
2023-04-24T20:39:24.350Z,40.14
2023-04-24T20:41:51.299Z,39.72
2023-04-24T20:44:18.434Z,40.03
2023-04-24T20:46:45.416Z,40.20
2023-04-24T20:49:12.538Z,40.17
2023-04-24T20:51:39.350Z,40.31
2023-04-24T20:54:06.615Z,40.21
2023-04-24T20:56:33.436Z,40.36
2023-04-24T20:59:00.807Z,40.46
2023-04-24T21:01:27.736Z,40.64
2023-04-24T21:03:54.854Z,40.29
2023-04-24T21:06:21.964Z,40.47
2023-04-24T21:08:49.224Z,40.32
2023-04-24T21:11:15.981Z,40.24
2023-04-24T21:13:43.080Z,40.58
2023-04-24T21:16:09.877Z,40.32
2023-04-24T21:18:41.243Z,40.55
2023-04-24T21:21:11.802Z,40.30
2023-04-24T21:23:39.118Z,40.80
2023-04-24T21:26:06.177Z,40.87
2023-04-24T21:28:33.279Z,40.85
2023-04-24T21:31:00.239Z,40.84
2023-04-24T21:33:27.358Z,40.73
2023-04-24T21:35:54.185Z,40.57
2023-04-24T21:38:24.450Z,40.84
2023-04-24T21:40:51.768Z,40.69
2023-04-24T21:43:19.709Z,40.50
2023-04-24T21:45:48.528Z,40.95
2023-04-24T21:48:15.619Z,40.59
2023-04-24T21:50:42.405Z,40.51
2023-04-24T21:53:09.530Z,40.86
2023-04-24T21:55:36.371Z,40.90
2023-04-24T21:58:03.650Z,40.90
2023-04-24T22:00:30.403Z,40.61
2023-04-24T22:03:54.481Z,40.80
2023-04-24T22:06:21.324Z,41.41
2023-04-24T22:08:48.362Z,41.22
2023-04-24T22:11:25.639Z,41.06
2023-04-24T22:13:54.428Z,41.16
2023-04-24T22:16:22.862Z,41.02
2023-04-24T22:18:50.067Z,41.28
2023-04-24T22:21:16.870Z,40.99
2023-04-24T22:23:43.882Z,40.84
2023-04-24T22:26:10.601Z,41.03
2023-04-24T22:28:37.700Z,41.07
2023-04-24T22:31:04.480Z,40.86
2023-04-24T22:33:31.587Z,41.39
2023-04-24T22:35:58.313Z,41.16
2023-04-24T22:38:25.350Z,41.13
2023-04-24T22:40:52.030Z,41.35
2023-04-24T22:45:58.689Z,41.12
2023-04-24T22:48:25.985Z,41.34
2023-04-24T22:50:52.725Z,41.06
2023-04-24T22:53:19.855Z,41.33
2023-04-24T22:55:46.585Z,41.18
2023-04-24T22:58:13.572Z,41.12
2023-04-24T23:00:40.265Z,41.27
2023-04-24T23:03:07.419Z,41.23
2023-04-24T23:05:34.221Z,41.16
2023-04-24T23:08:01.281Z,41.37
2023-04-24T23:10:28.521Z,41.26
2023-04-24T23:12:55.544Z,41.30
2023-04-24T23:15:22.298Z,40.98
2023-04-24T23:17:49.485Z,41.29
2023-04-24T23:20:16.612Z,41.35
2023-04-24T23:22:43.642Z,41.37
2023-04-24T23:25:10.984Z,41.11
2023-04-24T23:27:37.956Z,41.35
2023-04-24T23:30:06.721Z,41.44
2023-04-24T23:32:33.905Z,41.26
2023-04-24T23:35:00.742Z,41.14
2023-04-24T23:37:27.875Z,41.51
2023-04-24T23:39:54.568Z,41.47
2023-04-24T23:42:21.604Z,41.06
2023-04-24T23:44:48.299Z,41.63
2023-04-24T23:47:15.342Z,41.50
2023-04-24T23:49:41.993Z,41.61
2023-04-24T23:52:09.015Z,41.67
2023-04-24T23:54:35.807Z,41.18
2023-04-24T23:57:03.321Z,41.18
2023-04-24T23:59:30.662Z,41.15
